Time;durP1;ratioP1;P1;durP2;ratioP2;P2;SDS_P1;SDS_P2;PMS_P1;PMS_P2;Temp;Humidity;BMP_temperature;BMP_pressure;BME280_temperature;BME280_humidity;BME280_pressure;Samples;Min_cycle;Max_cycle;Signal;HPM_P1;HPM_P2
2023/11/01 00:01:39;;;;;;;9.37;3.73;;;10.80;99.90;;;;;;4996633;28;20214;-90
2023/11/01 00:04:06;;;;;;;4.17;3.10;;;10.80;99.90;;;;;;5012187;28;20277;-90
2023/11/01 00:06:32;;;;;;;1.73;1.50;;;10.80;99.90;;;;;;5028502;28;20214;-89
2023/11/01 00:08:58;;;;;;;5.87;3.70;;;10.80;99.90;;;;;;4995670;28;21358;-90
2023/11/01 00:11:24;;;;;;;3.20;2.37;;;10.80;99.90;;;;;;5029674;28;20709;-90
2023/11/01 00:13:50;;;;;;;6.13;3.43;;;10.70;99.90;;;;;;5028587;28;20230;-90
2023/11/01 00:16:15;;;;;;;3.73;3.43;;;10.70;99.90;;;;;;5027800;28;20194;-90
2023/11/01 00:18:41;;;;;;;5.50;3.87;;;10.70;99.90;;;;;;5045401;28;20188;-90
2023/11/01 00:21:07;;;;;;;1.80;1.53;;;10.70;99.90;;;;;;4996086;28;20264;-90
2023/11/01 00:23:33;;;;;;;4.37;3.37;;;10.80;99.90;;;;;;5027918;28;20717;-89
2023/11/01 00:25:59;;;;;;;4.43;3.27;;;10.80;99.90;;;;;;5012439;28;20720;-90
2023/11/01 00:28:27;;;;;;;2.90;1.80;;;10.80;99.90;;;;;;5011688;28;20552;-90
2023/11/01 00:30:53;;;;;;;2.97;2.77;;;10.70;99.90;;;;;;5013078;28;20698;-90
2023/11/01 00:33:18;;;;;;;8.43;2.63;;;10.70;99.90;;;;;;5027906;28;20352;-90
2023/11/01 00:35:44;;;;;;;8.63;4.43;;;10.70;99.90;;;;;;5011647;28;20222;-90
2023/11/01 00:38:10;;;;;;;7.43;3.33;;;10.80;99.90;;;;;;5022728;28;20229;-88
2023/11/01 00:40:36;;;;;;;4.93;4.43;;;10.70;99.90;;;;;;5027868;28;20217;-90
2023/11/01 00:43:03;;;;;;;4.97;4.13;;;10.80;99.90;;;;;;5012400;28;20281;-90
2023/11/01 00:45:29;;;;;;;2.40;2.20;;;10.80;99.90;;;;;;5011669;28;20317;-90
2023/11/01 00:47:55;;;;;;;4.63;3.17;;;10.80;99.90;;;;;;4994009;28;20305;-90
2023/11/01 00:50:20;;;;;;;5.50;3.10;;;10.70;99.90;;;;;;5009901;28;20234;-90
2023/11/01 00:52:46;;;;;;;9.07;3.40;;;10.70;99.90;;;;;;5019622;28;20214;-90
2023/11/01 00:55:12;;;;;;;6.50;3.83;;;10.70;99.90;;;;;;4995673;28;20216;-90
2023/11/01 00:57:38;;;;;;;7.77;5.63;;;10.70;99.90;;;;;;4995711;28;20206;-89
2023/11/01 01:00:06;;;;;;;3.17;2.97;;;10.70;99.90;;;;;;4994943;28;20344;-89
2023/11/01 01:02:32;;;;;;;4.93;2.70;;;10.70;99.90;;;;;;5012013;28;20213;-90
2023/11/01 01:04:57;;;;;;;5.70;5.30;;;10.70;99.90;;;;;;4995268;28;20237;-90
2023/11/01 01:07:23;;;;;;;5.57;4.17;;;10.70;99.90;;;;;;4995028;28;20183;-90
2023/11/01 01:09:49;;;;;;;4.37;2.70;;;10.70;99.90;;;;;;5014967;28;20200;-90
2023/11/01 01:12:15;;;;;;;5.77;4.37;;;10.70;99.90;;;;;;5014216;28;20220;-90
2023/11/01 01:14:41;;;;;;;6.00;3.83;;;10.70;99.90;;;;;;4998836;28;20218;-89
2023/11/01 01:17:06;;;;;;;3.20;2.40;;;10.60;99.90;;;;;;5014191;28;20249;-89
2023/11/01 01:19:32;;;;;;;9.10;5.07;;;10.70;99.90;;;;;;4997945;28;20218;-90
2023/11/01 01:22:01;;;;;;;6.87;4.87;;;10.60;99.90;;;;;;4999692;28;20186;-90
2023/11/01 01:24:27;;;;;;;6.37;3.93;;;10.70;99.90;;;;;;5014560;28;20695;-90
2023/11/01 01:26:53;;;;;;;7.20;3.10;;;10.70;99.90;;;;;;4999427;28;20237;-90
2023/11/01 01:29:19;;;;;;;2.90;2.70;;;10.70;99.90;;;;;;5021109;28;20222;-90
2023/11/01 01:31:45;;;;;;;4.20;3.13;;;10.70;99.90;;;;;;5014847;28;20224;-89
2023/11/01 01:34:10;;;;;;;2.30;1.87;;;10.60;99.90;;;;;;5015399;28;20655;-89
2023/11/01 01:36:36;;;;;;;5.37;2.67;;;10.70;99.90;;;;;;5014685;28;20218;-89
2023/11/01 01:39:02;;;;;;;3.40;3.07;;;10.70;99.90;;;;;;5022204;28;20206;-89
2023/11/01 01:41:28;;;;;;;4.60;4.13;;;10.60;99.90;;;;;;5022880;28;20209;-89
2023/11/01 01:43:53;;;;;;;3.77;3.13;;;10.70;99.90;;;;;;5013899;28;20609;-90
2023/11/01 01:46:22;;;;;;;5.90;3.17;;;10.70;99.90;;;;;;5030787;28;20186;-89
2023/11/01 01:48:48;;;;;;;4.43;3.07;;;10.60;99.90;;;;;;5031799;28;20228;-89
2023/11/01 01:51:14;;;;;;;2.13;1.87;;;10.60;99.90;;;;;;4997810;28;20218;-89
2023/11/01 01:53:44;;;;;;;4.13;3.27;;;10.50;99.90;;;;;;4997877;28;20221;-89
2023/11/01 01:56:12;;;;;;;9.00;5.03;;;10.50;99.90;;;;;;5015600;28;20213;-89
2023/11/01 01:58:39;;;;;;;8.23;5.00;;;10.50;99.90;;;;;;5029419;28;20214;-89
2023/11/01 02:01:05;;;;;;;3.67;3.00;;;10.50;99.90;;;;;;5014630;28;20186;-90
2023/11/01 02:03:32;;;;;;;2.77;2.43;;;10.40;99.90;;;;;;5013289;28;20256;-89
2023/11/01 02:05:58;;;;;;;4.87;3.50;;;10.30;99.90;;;;;;4997938;28;20301;-89
2023/11/01 02:08:35;;;;;;;10.70;3.00;;;10.30;99.90;;;;;;5023480;28;20218;-89
2023/11/01 02:11:02;;;;;;;10.90;3.37;;;10.30;99.90;;;;;;4988111;28;20217;-89
2023/11/01 02:13:28;;;;;;;5.13;3.37;;;10.20;99.90;;;;;;5004177;28;20199;-88
2023/11/01 02:15:54;;;;;;;2.20;2.10;;;10.20;99.90;;;;;;5039589;28;20557;-89
2023/11/01 02:18:20;;;;;;;2.30;2.00;;;10.20;99.90;;;;;;4997741;28;20609;-89
2023/11/01 02:20:48;;;;;;;3.80;3.43;;;10.20;99.90;;;;;;4997724;28;20230;-89
2023/11/01 02:23:15;;;;;;;8.83;3.83;;;10.20;99.90;;;;;;5030741;28;20214;-89
2023/11/01 02:25:42;;;;;;;3.53;3.23;;;10.10;99.90;;;;;;5047119;28;20698;-90
2023/11/01 02:28:10;;;;;;;2.13;1.77;;;10.10;99.90;;;;;;5031743;28;20564;-89
2023/11/01 02:30:38;;;;;;;4.27;3.13;;;10.10;99.90;;;;;;5031507;28;20222;-89
2023/11/01 02:33:04;;;;;;;5.87;2.63;;;10.10;99.90;;;;;;5030116;28;20251;-90
2023/11/01 02:35:30;;;;;;;3.77;3.30;;;10.10;99.90;;;;;;5012833;28;20254;-90
2023/11/01 02:37:55;;;;;;;3.63;3.23;;;10.10;99.90;;;;;;5031028;28;20234;-90
2023/11/01 02:40:21;;;;;;;3.30;2.77;;;10.10;99.90;;;;;;4998419;28;20210;-89
2023/11/01 02:42:48;;;;;;;4.33;1.73;;;10.10;99.90;;;;;;5014057;28;20178;-90
2023/11/01 02:45:15;;;;;;;2.27;1.90;;;10.20;99.90;;;;;;5029381;28;20226;-90
2023/11/01 02:47:42;;;;;;;6.13;3.10;;;10.20;99.90;;;;;;5030179;28;20225;-90
2023/11/01 02:50:13;;;;;;;3.47;3.20;;;10.20;99.90;;;;;;5031747;28;20288;-90
2023/11/01 02:52:40;;;;;;;3.60;3.23;;;10.20;99.90;;;;;;5030374;28;20225;-89
2023/11/01 02:55:10;;;;;;;4.10;3.10;;;10.20;99.90;;;;;;5031133;28;20207;-90
2023/11/01 02:57:37;;;;;;;4.00;2.37;;;10.20;99.90;;;;;;5038363;28;20210;-89
2023/11/01 03:00:06;;;;;;;5.20;3.43;;;10.20;99.90;;;;;;5029869;28;20710;-90
2023/11/01 03:02:38;;;;;;;6.80;2.77;;;10.10;99.90;;;;;;5028997;28;20207;-90
2023/11/01 03:05:07;;;;;;;4.63;4.00;;;10.10;99.90;;;;;;4997554;28;20209;-90
2023/11/01 03:07:33;;;;;;;4.60;3.10;;;10.10;99.90;;;;;;5020929;28;20170;-89
2023/11/01 03:09:59;;;;;;;3.67;3.23;;;10.10;99.90;;;;;;4997338;28;20179;-90
2023/11/01 03:12:24;;;;;;;4.53;2.63;;;10.10;99.90;;;;;;4994108;28;20712;-90
2023/11/01 03:14:51;;;;;;;2.53;2.37;;;10.10;99.90;;;;;;5013062;28;20237;-90
2023/11/01 03:17:17;;;;;;;3.13;2.83;;;10.00;99.90;;;;;;4997360;28;20250;-90
2023/11/01 03:19:43;;;;;;;2.87;1.83;;;10.00;99.90;;;;;;5013938;28;20245;-91
2023/11/01 03:22:09;;;;;;;4.33;2.33;;;9.90;99.90;;;;;;4997990;28;20186;-90
2023/11/01 03:24:34;;;;;;;3.60;2.77;;;9.70;99.90;;;;;;5014550;28;20261;-90
2023/11/01 03:27:00;;;;;;;5.17;3.40;;;9.80;99.90;;;;;;4996716;28;20218;-90
2023/11/01 03:29:26;;;;;;;8.37;4.23;;;9.80;99.90;;;;;;4996935;28;20619;-90
2023/11/01 03:31:52;;;;;;;8.43;2.23;;;9.80;99.90;;;;;;5036347;28;20210;-90
2023/11/01 03:34:19;;;;;;;2.13;2.03;;;9.80;99.90;;;;;;5013839;28;20219;-90
2023/11/01 03:36:44;;;;;;;3.23;2.67;;;9.80;99.90;;;;;;5029641;28;20193;-90
2023/11/01 03:39:10;;;;;;;5.57;3.43;;;9.80;99.90;;;;;;4997381;28;20302;-90
2023/11/01 03:41:43;;;;;;;10.50;3.77;;;9.90;99.90;;;;;;5047210;28;20217;-90
2023/11/01 03:44:09;;;;;;;3.53;3.07;;;9.90;99.90;;;;;;5013563;28;20257;-90
2023/11/01 03:46:35;;;;;;;4.63;2.57;;;10.00;99.90;;;;;;5013517;28;20215;-90
2023/11/01 03:49:01;;;;;;;3.10;2.77;;;10.10;99.90;;;;;;5030900;28;20277;-90
2023/11/01 03:51:27;;;;;;;4.33;4.10;;;10.20;99.90;;;;;;5028193;28;20214;-90
2023/11/01 03:53:56;;;;;;;3.90;3.53;;;10.20;99.90;;;;;;5029288;28;20222;-90
2023/11/01 03:56:22;;;;;;;4.73;2.60;;;10.20;99.90;;;;;;5046074;28;20207;-90
2023/11/01 03:58:48;;;;;;;2.87;1.77;;;10.30;99.90;;;;;;4997075;28;20789;-90
2023/11/01 04:01:15;;;;;;;6.03;4.27;;;10.30;99.90;;;;;;5035106;28;20186;-90
2023/11/01 04:03:41;;;;;;;4.43;4.03;;;10.40;99.90;;;;;;5031844;28;20244;-90
2023/11/01 04:06:08;;;;;;;15.20;3.80;;;10.50;99.90;;;;;;4994906;28;20222;-90
2023/11/01 04:08:34;;;;;;;2.93;2.70;;;10.50;99.90;;;;;;4994750;28;20233;-90
2023/11/01 04:10:59;;;;;;;3.47;3.17;;;10.50;99.90;;;;;;4993729;28;20214;-90
2023/11/01 04:13:25;;;;;;;3.10;2.80;;;10.50;99.90;;;;;;5007493;28;20187;-90
2023/11/01 04:15:51;;;;;;;9.30;3.60;;;10.60;99.90;;;;;;5013086;28;20220;-90
2023/11/01 04:18:17;;;;;;;5.63;3.47;;;10.60;99.90;;;;;;4996998;28;20207;-89
2023/11/01 04:20:43;;;;;;;5.70;3.83;;;10.60;99.90;;;;;;4995253;28;20233;-90
2023/11/01 04:23:09;;;;;;;3.13;2.93;;;10.70;99.90;;;;;;5010924;28;20245;-89
2023/11/01 04:25:35;;;;;;;2.57;2.07;;;10.80;99.90;;;;;;5011493;28;20268;-90
2023/11/01 04:28:01;;;;;;;9.43;3.90;;;10.80;99.90;;;;;;5029871;28;20186;-90
2023/11/01 04:30:26;;;;;;;6.53;3.30;;;10.80;99.90;;;;;;5028709;28;20581;-90
2023/11/01 04:32:52;;;;;;;29.40;2.83;;;10.90;99.90;;;;;;5027739;28;20336;-90
2023/11/01 04:35:18;;;;;;;4.83;2.93;;;10.90;99.90;;;;;;4996030;28;20271;-89
2023/11/01 04:37:44;;;;;;;2.37;1.73;;;11.00;99.90;;;;;;4995616;28;20578;-89
2023/11/01 04:40:12;;;;;;;3.60;3.17;;;10.90;99.90;;;;;;5028922;28;20201;-90
2023/11/01 04:42:42;;;;;;;4.50;4.20;;;11.10;99.90;;;;;;5046168;28;20260;-90
2023/11/01 04:45:09;;;;;;;9.17;3.43;;;11.10;99.90;;;;;;5032349;28;20682;-90
2023/11/01 04:47:36;;;;;;;2.53;2.33;;;11.10;99.90;;;;;;5015624;28;20228;-91
2023/11/01 04:50:08;;;;;;;3.63;3.43;;;11.20;99.90;;;;;;5015628;28;20709;-90
2023/11/01 04:52:35;;;;;;;3.90;3.13;;;11.30;99.90;;;;;;5049140;28;20214;-89
2023/11/01 04:55:02;;;;;;;3.03;2.13;;;11.40;99.90;;;;;;5048938;28;20198;-89
2023/11/01 04:57:27;;;;;;;5.67;2.93;;;11.40;99.90;;;;;;5032146;28;20206;-90
2023/11/01 04:59:53;;;;;;;4.83;3.03;;;11.60;99.90;;;;;;5015563;28;20210;-90
2023/11/01 05:02:19;;;;;;;4.83;3.83;;;11.60;99.90;;;;;;5031780;28;20210;-90
2023/11/01 05:04:45;;;;;;;11.00;4.27;;;11.60;99.90;;;;;;5014660;28;20202;-89
2023/11/01 05:07:11;;;;;;;12.10;3.67;;;11.70;99.90;;;;;;4999482;28;20186;-90
2023/11/01 05:09:36;;;;;;;8.13;4.43;;;11.80;99.90;;;;;;5031512;28;20210;-90
2023/11/01 05:12:03;;;;;;;12.63;5.50;;;11.90;99.90;;;;;;4998215;28;20202;-90
2023/11/01 05:14:29;;;;;;;4.53;3.43;;;12.00;99.90;;;;;;4998752;28;20218;-90
2023/11/01 05:16:56;;;;;;;8.30;4.80;;;12.10;99.90;;;;;;5014673;28;20744;-90
2023/11/01 05:19:22;;;;;;;19.07;4.43;;;12.10;99.90;;;;;;5015075;28;20179;-89
2023/11/01 05:21:48;;;;;;;10.77;4.17;;;12.20;99.90;;;;;;5015460;28;20186;-90
2023/11/01 05:24:14;;;;;;;7.90;4.50;;;12.20;99.90;;;;;;5047882;28;21018;-90
2023/11/01 05:26:40;;;;;;;7.93;3.73;;;12.20;99.90;;;;;;5031152;28;20218;-91
2023/11/01 05:29:06;;;;;;;4.83;4.43;;;12.20;99.90;;;;;;5015137;28;20297;-90
2023/11/01 05:31:34;;;;;;;4.17;3.47;;;12.30;99.90;;;;;;5014991;28;20179;-90
2023/11/01 05:34:01;;;;;;;8.63;5.20;;;12.30;99.90;;;;;;5021890;28;20217;-90
2023/11/01 05:36:27;;;;;;;10.23;5.60;;;12.30;99.90;;;;;;4997941;28;20298;-90
2023/11/01 05:38:53;;;;;;;5.50;3.57;;;12.30;99.90;;;;;;5024255;28;20290;-89
2023/11/01 05:41:19;;;;;;;10.77;4.77;;;12.30;99.90;;;;;;4998775;28;20218;-90
2023/11/01 05:43:45;;;;;;;6.30;5.53;;;12.30;99.90;;;;;;5049177;28;20682;-91
2023/11/01 05:46:11;;;;;;;6.00;4.37;;;12.30;99.90;;;;;;5015060;28;20559;-90
2023/11/01 05:48:37;;;;;;;12.93;4.43;;;12.30;99.90;;;;;;5030606;28;20210;-90
2023/11/01 05:51:04;;;;;;;6.80;3.97;;;12.30;99.90;;;;;;5014456;28;20237;-90
2023/11/01 05:53:34;;;;;;;6.60;4.80;;;12.30;99.90;;;;;;4998533;28;20227;-90
2023/11/01 05:56:00;;;;;;;6.70;5.47;;;12.20;99.90;;;;;;5014612;28;20209;-90
2023/11/01 05:58:28;;;;;;;7.23;4.37;;;12.30;99.90;;;;;;5030914;28;20183;-89
2023/11/01 06:00:54;;;;;;;5.33;3.23;;;12.30;99.90;;;;;;5023605;28;20660;-90
2023/11/01 06:03:20;;;;;;;3.13;2.87;;;12.20;99.90;;;;;;5014550;28;20228;-90
2023/11/01 06:05:46;;;;;;;7.23;4.33;;;12.30;99.90;;;;;;5038407;28;20274;-89
2023/11/01 06:08:13;;;;;;;7.20;4.23;;;12.30;99.90;;;;;;5014360;28;20222;-90
2023/11/01 06:10:41;;;;;;;12.77;4.13;;;12.20;99.90;;;;;;5031047;28;20221;-90
2023/11/01 06:13:09;;;;;;;12.13;4.23;;;12.20;99.90;;;;;;5013520;28;20202;-90
2023/11/01 06:15:36;;;;;;;4.83;2.93;;;12.10;99.90;;;;;;4988848;28;20226;-90
2023/11/01 06:18:05;;;;;;;6.73;4.43;;;12.00;99.90;;;;;;5013921;28;20217;-90
2023/11/01 06:20:37;;;;;;;5.40;4.30;;;12.00;99.90;;;;;;5014275;28;20233;-90
2023/11/01 06:23:08;;;;;;;9.17;4.10;;;12.10;99.90;;;;;;5029636;28;20206;-90
2023/11/01 06:25:34;;;;;;;10.77;4.90;;;12.10;99.90;;;;;;5029432;28;20233;-90
2023/11/01 06:28:00;;;;;;;6.70;5.07;;;12.10;99.90;;;;;;5046569;28;20186;-90
2023/11/01 06:30:26;;;;;;;5.73;4.53;;;12.10;99.90;;;;;;5014447;28;20275;-88
2023/11/01 06:32:52;;;;;;;4.83;2.57;;;12.10;99.90;;;;;;5015000;28;20318;-90
2023/11/01 06:35:18;;;;;;;5.57;3.73;;;12.10;99.90;;;;;;5029854;28;20301;-89
2023/11/01 06:37:46;;;;;;;7.73;5.77;;;12.10;99.90;;;;;;5014421;28;20218;-90
2023/11/01 06:40:12;;;;;;;4.33;3.70;;;12.00;99.90;;;;;;4998317;28;20190;-89
2023/11/01 06:42:38;;;;;;;4.30;4.00;;;12.00;99.90;;;;;;5013205;28;20282;-90
2023/11/01 06:45:04;;;;;;;15.43;4.07;;;12.00;99.90;;;;;;4997861;28;20383;-89
2023/11/01 06:47:30;;;;;;;6.53;3.33;;;12.00;99.90;;;;;;5014747;28;20218;-89
2023/11/01 06:49:56;;;;;;;4.20;3.23;;;12.00;99.90;;;;;;4998441;28;20217;-89
2023/11/01 06:52:22;;;;;;;6.13;3.10;;;12.10;99.90;;;;;;5023859;28;20186;-90
2023/11/01 06:54:48;;;;;;;4.43;3.67;;;12.10;99.90;;;;;;5030397;28;20285;-87
2023/11/01 06:57:13;;;;;;;4.67;3.97;;;12.10;99.90;;;;;;5013306;28;20206;-90
2023/11/01 06:59:41;;;;;;;3.93;3.57;;;12.20;99.90;;;;;;4997591;28;20211;-89
2023/11/01 07:02:11;;;;;;;4.83;2.23;;;12.20;99.90;;;;;;5028800;28;20210;-89
2023/11/01 07:04:36;;;;;;;4.77;3.10;;;12.20;99.90;;;;;;5030260;28;20253;-94
2023/11/01 07:07:03;;;;;;;9.93;3.70;;;12.30;99.90;;;;;;5014337;28;20179;-90
2023/11/01 07:09:29;;;;;;;5.37;4.00;;;12.20;99.90;;;;;;5030255;28;20210;-93
2023/11/01 07:11:54;;;;;;;4.33;2.33;;;12.20;99.90;;;;;;4996891;28;20746;-90
2023/11/01 07:14:20;;;;;;;9.37;3.73;;;12.30;99.90;;;;;;5012843;28;20218;-90
2023/11/01 07:16:46;;;;;;;4.30;3.10;;;12.30;99.90;;;;;;5029114;28;20214;-90
2023/11/01 07:19:13;;;;;;;10.13;2.23;;;12.30;99.90;;;;;;5012961;28;20245;-90
2023/11/01 07:21:42;;;;;;;3.27;2.90;;;12.30;99.90;;;;;;5012593;28;20218;-90
2023/11/01 07:24:08;;;;;;;4.53;3.27;;;12.30;99.90;;;;;;5028979;28;20215;-90
2023/11/01 07:26:34;;;;;;;6.03;3.13;;;12.40;99.90;;;;;;5029671;28;20767;-90
2023/11/01 07:29:00;;;;;;;6.37;2.30;;;12.50;99.90;;;;;;4997529;28;20297;-90
2023/11/01 07:31:26;;;;;;;4.13;3.73;;;12.50;99.90;;;;;;5029585;28;20300;-90
2023/11/01 07:33:53;;;;;;;6.60;2.70;;;12.50;99.90;;;;;;5046148;28;20203;-89
2023/11/01 07:36:19;;;;;;;5.03;2.43;;;12.50;99.90;;;;;;5012202;28;20206;-90
2023/11/01 07:38:45;;;;;;;4.77;3.43;;;12.60;99.90;;;;;;5012733;28;20297;-92
2023/11/01 07:41:12;;;;;;;2.47;2.23;;;12.60;99.90;;;;;;5029922;28;20214;-90
2023/11/01 07:43:43;;;;;;;3.07;1.77;;;12.60;99.90;;;;;;5029615;28;20209;-90
2023/11/01 07:46:09;;;;;;;4.00;2.93;;;12.60;99.90;;;;;;5013431;28;20183;-90
2023/11/01 07:48:36;;;;;;;2.57;2.33;;;12.70;99.90;;;;;;5012937;28;20225;-90
2023/11/01 07:51:05;;;;;;;2.47;1.53;;;12.70;99.90;;;;;;5029350;28;20220;-90
2023/11/01 07:53:32;;;;;;;5.33;1.93;;;12.70;99.90;;;;;;5011660;28;20314;-90
2023/11/01 07:55:58;;;;;;;4.37;3.07;;;12.70;99.90;;;;;;5027783;28;20225;-90
2023/11/01 07:58:24;;;;;;;3.37;2.77;;;12.70;99.90;;;;;;5028361;28;20183;-90
2023/11/01 08:00:50;;;;;;;5.20;2.03;;;12.80;99.90;;;;;;4996696;28;20179;-90
2023/11/01 08:03:16;;;;;;;2.37;2.17;;;12.80;99.90;;;;;;5011667;28;20566;-90
2023/11/01 08:05:42;;;;;;;2.50;2.10;;;12.90;99.90;;;;;;5029589;28;20521;-91
2023/11/01 08:08:08;;;;;;;2.60;2.23;;;12.90;99.90;;;;;;5013616;28;20218;-90
2023/11/01 08:10:34;;;;;;;1.80;1.70;;;13.00;99.90;;;;;;5012381;28;20641;-90
2023/11/01 08:13:00;;;;;;;2.57;2.00;;;13.00;99.90;;;;;;5013207;28;20193;-90
2023/11/01 08:15:25;;;;;;;12.97;2.07;;;13.00;99.90;;;;;;5027786;28;20221;-90
2023/11/01 08:17:52;;;;;;;5.13;1.73;;;13.10;99.90;;;;;;5027850;28;20206;-90
2023/11/01 08:20:18;;;;;;;1.70;1.60;;;13.20;99.90;;;;;;5020435;28;20569;-89
2023/11/01 08:22:44;;;;;;;1.50;1.00;;;13.10;99.90;;;;;;5029547;28;20206;-88
2023/11/01 08:25:11;;;;;;;1.00;0.63;;;13.10;99.90;;;;;;5027899;28;20647;-90
2023/11/01 08:27:37;;;;;;;3.53;1.73;;;13.10;99.90;;;;;;4992158;28;20695;-90
2023/11/01 08:30:03;;;;;;;1.77;1.27;;;13.10;99.90;;;;;;5007847;28;20215;-89
2023/11/01 08:32:29;;;;;;;2.53;1.53;;;13.20;99.90;;;;;;4991715;28;20219;-89
2023/11/01 08:34:57;;;;;;;2.57;1.73;;;13.10;99.90;;;;;;4990764;28;20241;-89
2023/11/01 08:37:23;;;;;;;0.73;0.73;;;13.20;99.90;;;;;;4976911;28;20186;-92
2023/11/01 08:39:49;;;;;;;1.20;1.10;;;13.20;99.90;;;;;;4993900;28;20206;-89
2023/11/01 08:42:14;;;;;;;2.13;1.90;;;13.20;99.90;;;;;;4992194;28;20242;-89
2023/11/01 08:44:40;;;;;;;1.30;1.10;;;13.20;99.90;;;;;;4978063;28;20222;-89
2023/11/01 08:47:07;;;;;;;1.80;1.03;;;13.30;99.90;;;;;;4976846;28;20225;-88
2023/11/01 08:49:32;;;;;;;1.20;0.90;;;13.30;99.90;;;;;;4975681;28;20191;-89
2023/11/01 08:51:58;;;;;;;1.27;1.27;;;13.30;99.90;;;;;;4992900;28;20181;-89
2023/11/01 08:54:26;;;;;;;2.50;2.30;;;13.30;99.90;;;;;;4975547;28;20309;-89
2023/11/01 08:56:52;;;;;;;1.63;1.03;;;13.40;99.90;;;;;;4993570;28;20269;-88
2023/11/01 08:59:18;;;;;;;1.83;1.70;;;13.40;99.90;;;;;;5007304;28;20218;-88
2023/11/01 09:01:44;;;;;;;1.23;1.13;;;13.40;99.90;;;;;;5005658;28;20241;-89
2023/11/01 09:04:13;;;;;;;1.70;1.53;;;13.50;99.90;;;;;;4992847;28;20188;-90
2023/11/01 09:06:39;;;;;;;3.00;2.20;;;13.50;99.90;;;;;;5007277;28;20210;-90
2023/11/01 09:09:05;;;;;;;3.70;1.63;;;13.60;99.90;;;;;;4993022;28;20709;-89
2023/11/01 09:11:30;;;;;;;3.87;2.23;;;13.60;99.90;;;;;;4991300;28;20219;-89
2023/11/01 09:13:56;;;;;;;4.40;2.00;;;13.60;99.90;;;;;;4976579;28;20219;-91
2023/11/01 09:16:22;;;;;;;2.53;1.93;;;13.80;99.90;;;;;;4976429;28;20197;-89
2023/11/01 09:18:48;;;;;;;3.03;1.80;;;13.80;99.90;;;;;;4994587;28;20194;-90
2023/11/01 09:21:13;;;;;;;4.37;3.10;;;13.90;99.90;;;;;;4976766;28;20214;-91
2023/11/01 09:23:39;;;;;;;2.57;2.27;;;13.90;99.90;;;;;;4984780;28;20270;-94
2023/11/01 09:26:08;;;;;;;3.90;2.70;;;14.00;99.90;;;;;;4983974;28;20229;-89
2023/11/01 09:28:34;;;;;;;4.23;3.03;;;14.00;99.90;;;;;;4995344;28;20237;-89
2023/11/01 09:31:00;;;;;;;3.17;2.23;;;14.10;99.90;;;;;;5015942;28;20178;-90
2023/11/01 09:33:26;;;;;;;7.60;2.23;;;14.10;99.90;;;;;;4998854;28;20210;-89
2023/11/01 09:35:51;;;;;;;3.67;3.33;;;14.20;99.90;;;;;;5014709;28;20222;-90
2023/11/01 09:38:17;;;;;;;2.57;2.37;;;14.20;99.90;;;;;;5032276;28;20218;-90
2023/11/01 09:40:44;;;;;;;4.23;2.60;;;14.30;99.90;;;;;;5031522;28;20289;-90
2023/11/01 09:43:11;;;;;;;11.77;3.13;;;14.30;99.90;;;;;;4998471;28;20612;-90
2023/11/01 09:45:37;;;;;;;4.73;3.40;;;14.40;99.90;;;;;;5029626;28;20246;-91
2023/11/01 09:48:04;;;;;;;5.13;2.67;;;14.40;99.90;;;;;;5013534;28;20273;-90
2023/11/01 09:50:35;;;;;;;4.77;2.83;;;14.50;99.90;;;;;;5030691;28;20687;-91
2023/11/01 09:53:02;;;;;;;2.80;2.33;;;14.60;99.90;;;;;;5029079;28;20591;-91
2023/11/01 09:55:28;;;;;;;3.80;2.53;;;14.80;99.90;;;;;;5013575;28;20206;-90
2023/11/01 09:57:55;;;;;;;6.17;3.43;;;14.70;99.90;;;;;;5031422;28;20253;-90
2023/11/01 10:00:22;;;;;;;4.10;2.30;;;14.70;99.90;;;;;;5012601;28;20297;-91
2023/11/01 10:02:48;;;;;;;9.50;4.57;;;14.70;99.90;;;;;;5012760;28;20621;-89
2023/11/01 10:05:13;;;;;;;6.20;2.47;;;14.70;99.90;;;;;;5010448;28;20218;-90
2023/11/01 10:07:39;;;;;;;6.17;3.33;;;14.70;99.90;;;;;;5028110;28;20222;-91
2023/11/01 10:10:06;;;;;;;3.63;2.50;;;14.80;99.90;;;;;;5012634;28;20268;-90
2023/11/01 10:12:32;;;;;;;1.87;1.53;;;14.90;99.90;;;;;;4997851;28;20721;-90
2023/11/01 10:15:01;;;;;;;5.23;3.60;;;14.90;99.90;;;;;;5012360;28;20249;-91
2023/11/01 10:17:28;;;;;;;6.03;3.17;;;15.00;99.90;;;;;;5015219;28;20214;-93
2023/11/01 10:19:54;;;;;;;10.67;3.13;;;15.00;99.90;;;;;;5015021;28;20694;-90
2023/11/01 10:22:20;;;;;;;2.17;1.97;;;15.10;99.90;;;;;;4999534;28;20178;-90
2023/11/01 10:24:46;;;;;;;7.60;2.67;;;15.10;99.90;;;;;;5001614;28;20654;-91
2023/11/01 10:27:11;;;;;;;2.93;2.67;;;15.10;99.90;;;;;;4998561;28;20721;-90
2023/11/01 10:29:45;;;;;;;7.20;1.97;;;15.10;99.90;;;;;;5012556;28;20232;-91
2023/11/01 10:32:12;;;;;;;3.67;2.47;;;15.20;99.90;;;;;;5030279;28;20218;-90
2023/11/01 10:34:38;;;;;;;3.63;3.17;;;15.20;99.90;;;;;;5028847;28;20219;-90
2023/11/01 10:37:05;;;;;;;14.27;3.27;;;15.30;99.90;;;;;;4997377;28;20447;-91
2023/11/01 10:39:35;;;;;;;11.20;2.73;;;15.30;99.90;;;;;;5030559;28;20214;-90
2023/11/01 10:42:03;;;;;;;9.00;3.37;;;15.30;99.90;;;;;;5010748;28;20210;-89
2023/11/01 10:44:30;;;;;;;4.77;3.03;;;15.40;99.90;;;;;;5011439;28;20264;-89
2023/11/01 10:46:57;;;;;;;4.30;2.30;;;15.40;99.90;;;;;;5013194;28;20269;-89
2023/11/01 10:49:24;;;;;;;9.33;2.70;;;15.40;99.90;;;;;;5029395;28;20228;-89
2023/11/01 10:51:52;;;;;;;3.93;2.33;;;15.40;99.90;;;;;;5029419;28;20175;-88
2023/11/01 10:54:18;;;;;;;22.13;3.20;;;15.50;99.90;;;;;;5012107;28;20272;-89
2023/11/01 10:56:46;;;;;;;3.90;2.80;;;15.60;99.90;;;;;;5012990;28;20224;-89
2023/11/01 10:59:22;;;;;;;3.30;2.10;;;15.50;99.90;;;;;;5013700;28;20220;-88
2023/11/01 11:02:07;;;;;;;5.03;3.07;;;15.50;99.90;;;;;;5028725;28;20272;-89
2023/11/01 11:05:02;;;;;;;3.40;2.10;;;15.50;99.90;;;;;;5045727;28;20647;-89
2023/11/01 11:07:48;;;;;;;4.87;2.23;;;15.50;99.90;;;;;;5026554;28;20576;-89
2023/11/01 11:10:31;;;;;;;1.93;1.80;;;15.60;99.90;;;;;;5013419;28;20189;-90
2023/11/01 11:13:09;;;;;;;2.47;2.00;;;15.60;99.90;;;;;;5049045;28;20969;-90
2023/11/01 11:15:48;;;;;;;3.43;2.87;;;15.80;99.90;;;;;;5030802;28;20218;-90
2023/11/01 11:18:21;;;;;;;3.30;2.23;;;15.90;99.90;;;;;;5035885;28;20312;-89
2023/11/01 11:20:51;;;;;;;2.27;1.90;;;16.00;99.90;;;;;;5019732;28;20199;-89
2023/11/01 11:23:19;;;;;;;13.27;2.40;;;15.80;99.90;;;;;;5044466;28;20214;-90
2023/11/01 11:25:50;;;;;;;3.73;2.40;;;15.80;99.90;;;;;;5011783;28;20222;-90
2023/11/01 11:28:18;;;;;;;4.23;2.43;;;15.80;99.90;;;;;;4993639;28;20178;-91
2023/11/01 11:30:47;;;;;;;3.17;1.90;;;15.90;99.90;;;;;;5008095;28;20187;-90
2023/11/01 11:33:17;;;;;;;3.90;2.80;;;15.90;99.90;;;;;;5003065;28;20253;-91
2023/11/01 11:35:42;;;;;;;5.23;2.17;;;16.00;99.90;;;;;;4971685;28;20778;-91
2023/11/01 11:38:34;;;;;;;2.07;1.87;;;16.00;99.90;;;;;;4991055;28;20214;-91
2023/11/01 11:41:20;;;;;;;5.10;2.07;;;16.00;99.90;;;;;;5000406;28;20210;-91
2023/11/01 11:44:01;;;;;;;2.87;2.43;;;16.20;99.90;;;;;;5004256;28;20211;-90
2023/11/01 11:46:46;;;;;;;2.47;1.70;;;16.20;99.90;;;;;;5024033;28;20202;-92
2023/11/01 11:49:24;;;;;;;2.90;1.93;;;16.20;99.90;;;;;;5026042;28;20668;-90
2023/11/01 11:51:52;;;;;;;9.00;1.63;;;16.10;99.90;;;;;;4984227;28;20641;-90
2023/11/01 11:54:18;;;;;;;1.63;0.97;;;16.10;99.90;;;;;;4995072;28;20226;-90
2023/11/01 11:56:45;;;;;;;2.40;1.20;;;16.00;99.90;;;;;;4992723;28;20214;-91
2023/11/01 11:59:21;;;;;;;2.30;1.73;;;15.90;99.90;;;;;;5010214;28;20214;-91
2023/11/01 12:01:51;;;;;;;1.37;1.23;;;15.90;99.90;;;;;;5009502;28;20214;-91
2023/11/01 12:04:18;;;;;;;4.87;1.47;;;15.90;99.90;;;;;;5008677;28;20236;-91
2023/11/01 12:06:50;;;;;;;3.10;2.17;;;15.90;99.90;;;;;;4996052;28;20184;-91
2023/11/01 12:09:24;;;;;;;1.03;1.00;;;15.70;99.90;;;;;;5025366;28;20281;-91
2023/11/01 12:11:54;;;;;;;1.83;1.30;;;15.70;99.90;;;;;;4992132;28;20629;-90
2023/11/01 12:14:22;;;;;;;3.50;1.43;;;15.80;99.90;;;;;;5002156;28;20268;-90
2023/11/01 12:16:49;;;;;;;9.10;1.57;;;15.80;99.90;;;;;;5010176;28;20271;-91
2023/11/01 12:19:18;;;;;;;8.20;1.30;;;15.90;99.90;;;;;;5008507;28;20190;-93
2023/11/01 12:22:00;;;;;;;2.10;1.67;;;15.90;99.90;;;;;;5002733;28;20175;-91
2023/11/01 12:24:47;;;;;;;1.93;1.83;;;15.90;99.90;;;;;;5007104;28;20206;-92
2023/11/01 12:27:33;;;;;;;2.70;1.23;;;15.90;99.90;;;;;;5024017;28;20242;-92
2023/11/01 12:30:06;;;;;;;1.43;1.20;;;15.90;99.90;;;;;;5009042;28;20605;-94
2023/11/01 12:32:33;;;;;;;1.93;1.73;;;15.90;99.90;;;;;;4998173;28;20221;-91
2023/11/01 12:35:05;;;;;;;2.17;1.10;;;15.90;99.90;;;;;;5013338;28;20721;-91
2023/11/01 12:37:34;;;;;;;1.27;1.17;;;15.90;99.90;;;;;;5015458;28;20182;-92
2023/11/01 12:40:16;;;;;;;1.40;1.30;;;15.90;99.90;;;;;;5035239;28;20178;-92
2023/11/01 12:42:43;;;;;;;2.07;1.40;;;15.90;99.90;;;;;;5036354;28;20633;-90
2023/11/01 12:45:10;;;;;;;2.93;0.87;;;15.80;99.90;;;;;;5054549;28;20269;-94
2023/11/01 12:47:52;;;;;;;6.73;1.00;;;15.70;99.90;;;;;;5031128;28;20221;-92